sensor_id;sensor_type;location;lat;lon;timestamp;pressure;altitude;pressure_sealevel;temperature;humidity
53932;BME280;39844;52.496;13.482;2023-03-01T00:02:10;102971.28;;;-1.16;82.31
53932;BME280;39844;52.496;13.482;2023-03-01T00:04:36;102973.75;;;-1.17;82.47
53932;BME280;39844;52.496;13.482;2023-03-01T00:07:01;102981.47;;;-1.17;83.13
53932;BME280;39844;52.496;13.482;2023-03-01T00:09:27;102972.69;;;-1.19;82.68
53932;BME280;39844;52.496;13.482;2023-03-01T00:11:52;102957.13;;;-1.21;82.92
53932;BME280;39844;52.496;13.482;2023-03-01T00:14:17;102959.59;;;-1.22;82.86
53932;BME280;39844;52.496;13.482;2023-03-01T00:16:44;102961.28;;;-1.23;82.91
53932;BME280;39844;52.496;13.482;2023-03-01T00:19:13;102965.53;;;-1.23;83.02
53932;BME280;39844;52.496;13.482;2023-03-01T00:21:38;102958.56;;;-1.24;82.91
53932;BME280;39844;52.496;13.482;2023-03-01T00:24:04;102953.19;;;-1.27;82.86
53932;BME280;39844;52.496;13.482;2023-03-01T00:26:30;102950.47;;;-1.29;82.83
53932;BME280;39844;52.496;13.482;2023-03-01T00:28:57;102952.94;;;-1.31;82.51
53932;BME280;39844;52.496;13.482;2023-03-01T00:31:25;102952.69;;;-1.34;82.60
53932;BME280;39844;52.496;13.482;2023-03-01T00:33:55;102956.28;;;-1.32;83.45
53932;BME280;39844;52.496;13.482;2023-03-01T00:36:21;102951.69;;;-1.36;83.18
53932;BME280;39844;52.496;13.482;2023-03-01T00:38:46;102949.75;;;-1.38;83.74
53932;BME280;39844;52.496;13.482;2023-03-01T00:41:15;102956.59;;;-1.39;83.76
53932;BME280;39844;52.496;13.482;2023-03-01T00:43:41;102948.84;;;-1.39;84.47
53932;BME280;39844;52.496;13.482;2023-03-01T00:46:12;102950.66;;;-1.38;84.29
53932;BME280;39844;52.496;13.482;2023-03-01T00:48:38;102941.03;;;-1.40;84.28
53932;BME280;39844;52.496;13.482;2023-03-01T00:51:14;102938.31;;;-1.42;84.01
53932;BME280;39844;52.496;13.482;2023-03-01T00:53:40;102956.97;;;-1.44;84.04
53932;BME280;39844;52.496;13.482;2023-03-01T00:56:07;102946.56;;;-1.46;84.77
53932;BME280;39844;52.496;13.482;2023-03-01T00:58:34;102948.34;;;-1.45;85.20
53932;BME280;39844;52.496;13.482;2023-03-01T01:01:00;102943.09;;;-1.46;85.27
53932;BME280;39844;52.496;13.482;2023-03-01T01:03:25;102931.88;;;-1.47;85.23
53932;BME280;39844;52.496;13.482;2023-03-01T01:05:54;102936.03;;;-1.49;84.99
53932;BME280;39844;52.496;13.482;2023-03-01T01:08:20;102930.88;;;-1.49;85.57
53932;BME280;39844;52.496;13.482;2023-03-01T01:10:46;102930.63;;;-1.52;84.80
53932;BME280;39844;52.496;13.482;2023-03-01T01:13:12;102933.09;;;-1.53;85.25
53932;BME280;39844;52.496;13.482;2023-03-01T01:15:38;102930.63;;;-1.52;85.84
53932;BME280;39844;52.496;13.482;2023-03-01T01:18:04;102919.19;;;-1.55;85.39
53932;BME280;39844;52.496;13.482;2023-03-01T01:20:29;102925.00;;;-1.58;85.10
53932;BME280;39844;52.496;13.482;2023-03-01T01:22:54;102916.13;;;-1.61;85.04
53932;BME280;39844;52.496;13.482;2023-03-01T01:25:20;102911.63;;;-1.64;85.13
53932;BME280;39844;52.496;13.482;2023-03-01T01:27:45;102907.25;;;-1.65;85.83
53932;BME280;39844;52.496;13.482;2023-03-01T01:30:11;102905.72;;;-1.63;86.35
53932;BME280;39844;52.496;13.482;2023-03-01T01:32:37;102910.88;;;-1.63;86.36
53932;BME280;39844;52.496;13.482;2023-03-01T01:35:02;102895.41;;;-1.63;86.17
53932;BME280;39844;52.496;13.482;2023-03-01T01:37:27;102890.94;;;-1.65;86.00
53932;BME280;39844;52.496;13.482;2023-03-01T01:39:53;102895.16;;;-1.66;85.70
53932;BME280;39844;52.496;13.482;2023-03-01T01:42:18;102891.59;;;-1.68;85.67
53932;BME280;39844;52.496;13.482;2023-03-01T01:44:47;102896.72;;;-1.68;86.15
53932;BME280;39844;52.496;13.482;2023-03-01T01:47:16;102890.53;;;-1.70;85.85
53932;BME280;39844;52.496;13.482;2023-03-01T01:52:14;102893.50;;;-1.75;85.53
53932;BME280;39844;52.496;13.482;2023-03-01T01:54:57;102893.41;;;-1.77;85.79
53932;BME280;39844;52.496;13.482;2023-03-01T01:57:55;102900.13;;;-1.79;86.17
53932;BME280;39844;52.496;13.482;2023-03-01T02:00:27;102902.69;;;-1.79;86.40
53932;BME280;39844;52.496;13.482;2023-03-01T02:02:58;102902.69;;;-1.79;86.38
53932;BME280;39844;52.496;13.482;2023-03-01T02:05:51;102911.16;;;-1.80;86.33
53932;BME280;39844;52.496;13.482;2023-03-01T02:08:20;102916.22;;;-1.81;86.32
53932;BME280;39844;52.496;13.482;2023-03-01T02:10:48;102925.69;;;-1.80;86.91
53932;BME280;39844;52.496;13.482;2023-03-01T02:13:14;102917.88;;;-1.82;86.32
53932;BME280;39844;52.496;13.482;2023-03-01T02:15:40;102915.31;;;-1.82;86.63
53932;BME280;39844;52.496;13.482;2023-03-01T02:18:07;102916.97;;;-1.82;86.76
53932;BME280;39844;52.496;13.482;2023-03-01T02:23:24;102906.31;;;-1.87;86.14
53932;BME280;39844;52.496;13.482;2023-03-01T02:25:58;102918.00;;;-1.91;86.29
53932;BME280;39844;52.496;13.482;2023-03-01T02:28:29;102917.91;;;-1.92;86.24
53932;BME280;39844;52.496;13.482;2023-03-01T02:30:55;102914.44;;;-1.93;86.82
53932;BME280;39844;52.496;13.482;2023-03-01T02:33:20;102908.38;;;-1.93;86.58
53932;BME280;39844;52.496;13.482;2023-03-01T02:35:46;102912.66;;;-1.94;86.77
53932;BME280;39844;52.496;13.482;2023-03-01T02:38:11;102919.47;;;-1.94;87.10
53932;BME280;39844;52.496;13.482;2023-03-01T02:40:37;102918.44;;;-1.96;87.07
53932;BME280;39844;52.496;13.482;2023-03-01T02:43:04;102915.63;;;-1.99;87.06
53932;BME280;39844;52.496;13.482;2023-03-01T02:45:33;102909.56;;;-2.00;87.01
53932;BME280;39844;52.496;13.482;2023-03-01T02:47:58;102909.56;;;-2.00;87.31
53932;BME280;39844;52.496;13.482;2023-03-01T02:55:20;102910.22;;;-2.02;86.97
53932;BME280;39844;52.496;13.482;2023-03-01T02:57:48;102905.97;;;-2.02;87.59
53932;BME280;39844;52.496;13.482;2023-03-01T03:00:21;102895.69;;;-2.02;87.88
53932;BME280;39844;52.496;13.482;2023-03-01T03:02:50;102900.59;;;-2.05;87.22
53932;BME280;39844;52.496;13.482;2023-03-01T03:05:18;102886.16;;;-2.03;88.09
53932;BME280;39844;52.496;13.482;2023-03-01T03:07:46;102897.34;;;-2.02;87.73
53932;BME280;39844;52.496;13.482;2023-03-01T03:10:15;102892.84;;;-2.05;87.26
53932;BME280;39844;52.496;13.482;2023-03-01T03:12:42;102893.63;;;-2.06;87.72
53932;BME280;39844;52.496;13.482;2023-03-01T03:15:09;102885.69;;;-2.09;87.51
53932;BME280;39844;52.496;13.482;2023-03-01T03:17:39;102886.34;;;-2.11;87.22
53932;BME280;39844;52.496;13.482;2023-03-01T03:20:07;102896.38;;;-2.14;87.62
53932;BME280;39844;52.496;13.482;2023-03-01T03:22:33;102896.09;;;-2.17;87.40
53932;BME280;39844;52.496;13.482;2023-03-01T03:24:59;102897.53;;;-2.21;86.96
53932;BME280;39844;52.496;13.482;2023-03-01T03:27:25;102887.88;;;-2.23;87.10
53932;BME280;39844;52.496;13.482;2023-03-01T03:29:50;102888.69;;;-2.24;87.35
53932;BME280;39844;52.496;13.482;2023-03-01T03:32:15;102880.81;;;-2.26;87.38
53932;BME280;39844;52.496;13.482;2023-03-01T03:34:41;102882.50;;;-2.26;87.94
53932;BME280;39844;52.496;13.482;2023-03-01T03:37:06;102876.72;;;-2.24;88.52
53932;BME280;39844;52.496;13.482;2023-03-01T03:39:31;102880.81;;;-2.26;88.21
53932;BME280;39844;52.496;13.482;2023-03-01T03:41:57;102873.00;;;-2.27;88.10
53932;BME280;39844;52.496;13.482;2023-03-01T03:44:22;102876.31;;;-2.28;88.50
53932;BME280;39844;52.496;13.482;2023-03-01T03:46:48;102871.97;;;-2.29;88.57
53932;BME280;39844;52.496;13.482;2023-03-01T03:49:13;102862.44;;;-2.30;88.86
53932;BME280;39844;52.496;13.482;2023-03-01T03:51:38;102860.53;;;-2.33;88.55
53932;BME280;39844;52.496;13.482;2023-03-01T03:54:04;102853.72;;;-2.32;88.92
53932;BME280;39844;52.496;13.482;2023-03-01T03:56:29;102856.13;;;-2.34;88.90
53932;BME280;39844;52.496;13.482;2023-03-01T03:58:55;102850.78;;;-2.37;88.71
53932;BME280;39844;52.496;13.482;2023-03-01T04:01:20;102854.22;;;-2.36;88.73
53932;BME280;39844;52.496;13.482;2023-03-01T04:03:46;102850.63;;;-2.38;89.10
53932;BME280;39844;52.496;13.482;2023-03-01T04:06:11;102848.06;;;-2.38;89.21
53932;BME280;39844;52.496;13.482;2023-03-01T04:08:36;102850.38;;;-2.41;88.71
53932;BME280;39844;52.496;13.482;2023-03-01T04:11:03;102854.38;;;-2.45;88.25
53932;BME280;39844;52.496;13.482;2023-03-01T04:13:29;102848.88;;;-2.49;88.25
53932;BME280;39844;52.496;13.482;2023-03-01T04:15:54;102857.34;;;-2.50;88.27
53932;BME280;39844;52.496;13.482;2023-03-01T04:18:22;102859.66;;;-2.53;88.24
53932;BME280;39844;52.496;13.482;2023-03-01T04:20:48;102857.72;;;-2.56;88.16
53932;BME280;39844;52.496;13.482;2023-03-01T04:23:16;102860.31;;;-2.56;88.07
53932;BME280;39844;52.496;13.482;2023-03-01T04:28:12;102853.50;;;-2.56;89.09
53932;BME280;39844;52.496;13.482;2023-03-01T04:30:38;102851.69;;;-2.57;89.48
53932;BME280;39844;52.496;13.482;2023-03-01T04:33:08;102851.69;;;-2.57;89.28
53932;BME280;39844;52.496;13.482;2023-03-01T04:35:34;102850.66;;;-2.59;89.02
53932;BME280;39844;52.496;13.482;2023-03-01T04:38:00;102846.19;;;-2.61;89.14
53932;BME280;39844;52.496;13.482;2023-03-01T04:40:25;102848.63;;;-2.63;89.13
53932;BME280;39844;52.496;13.482;2023-03-01T04:42:51;102854.53;;;-2.64;89.04
53932;BME280;39844;52.496;13.482;2023-03-01T04:45:16;102850.81;;;-2.67;88.90
53932;BME280;39844;52.496;13.482;2023-03-01T04:47:43;102852.50;;;-2.68;89.39
53932;BME280;39844;52.496;13.482;2023-03-01T04:50:09;102841.41;;;-2.67;90.03
53932;BME280;39844;52.496;13.482;2023-03-01T04:52:35;102844.25;;;-2.64;90.75
53932;BME280;39844;52.496;13.482;2023-03-01T04:55:01;102839.09;;;-2.64;90.06
53932;BME280;39844;52.496;13.482;2023-03-01T04:57:27;102840.66;;;-2.66;89.53
53932;BME280;39844;52.496;13.482;2023-03-01T04:59:52;102848.25;;;-2.67;89.57
53932;BME280;39844;52.496;13.482;2023-03-01T05:02:18;102847.47;;;-2.66;90.40
53932;BME280;39844;52.496;13.482;2023-03-01T05:04:43;102856.72;;;-2.68;90.12
53932;BME280;39844;52.496;13.482;2023-03-01T05:07:09;102851.47;;;-2.70;90.15
53932;BME280;39844;52.496;13.482;2023-03-01T05:09:35;102846.97;;;-2.72;90.13
53932;BME280;39844;52.496;13.482;2023-03-01T05:12:00;102842.47;;;-2.75;90.27
53932;BME280;39844;52.496;13.482;2023-03-01T05:14:25;102847.63;;;-2.75;90.49
53932;BME280;39844;52.496;13.482;2023-03-01T05:16:51;102846.84;;;-2.74;90.78
53932;BME280;39844;52.496;13.482;2023-03-01T05:19:16;102847.09;;;-2.71;91.10
53932;BME280;39844;52.496;13.482;2023-03-01T05:21:42;102851.22;;;-2.73;90.58
53932;BME280;39844;52.496;13.482;2023-03-01T05:24:08;102846.56;;;-2.77;90.06
53932;BME280;39844;52.496;13.482;2023-03-01T05:26:33;102845.56;;;-2.79;89.91
53932;BME280;39844;52.496;13.482;2023-03-01T05:28:58;102846.34;;;-2.80;90.01
53932;BME280;39844;52.496;13.482;2023-03-01T05:31:24;102841.22;;;-2.80;90.32
53932;BME280;39844;52.496;13.482;2023-03-01T05:33:49;102839.66;;;-2.78;90.62
53932;BME280;39844;52.496;13.482;2023-03-01T05:36:14;102842.22;;;-2.78;90.36
53932;BME280;39844;52.496;13.482;2023-03-01T05:38:40;102839.00;;;-2.75;90.67
53932;BME280;39844;52.496;13.482;2023-03-01T05:41:05;102835.66;;;-2.74;90.60
53932;BME280;39844;52.496;13.482;2023-03-01T05:43:38;102838.09;;;-2.76;90.62
53932;BME280;39844;52.496;13.482;2023-03-01T05:46:03;102833.72;;;-2.77;90.13
53932;BME280;39844;52.496;13.482;2023-03-01T05:48:28;102830.94;;;-2.80;89.88
53932;BME280;39844;52.496;13.482;2023-03-01T05:50:54;102824.72;;;-2.82;90.01
53932;BME280;39844;52.496;13.482;2023-03-01T05:53:20;102833.63;;;-2.78;91.39
53932;BME280;39844;52.496;13.482;2023-03-01T05:55:45;102834.50;;;-2.78;91.30
53932;BME280;39844;52.496;13.482;2023-03-01T05:58:18;102835.53;;;-2.76;91.26
53932;BME280;39844;52.496;13.482;2023-03-01T06:00:46;102834.50;;;-2.78;90.47
53932;BME280;39844;52.496;13.482;2023-03-01T06:03:14;102842.34;;;-2.76;90.87
53932;BME280;39844;52.496;13.482;2023-03-01T06:05:40;102836.28;;;-2.77;90.72
53932;BME280;39844;52.496;13.482;2023-03-01T06:08:06;102846.84;;;-2.74;91.38
53932;BME280;39844;52.496;13.482;2023-03-01T06:10:31;102846.84;;;-2.74;91.28
53932;BME280;39844;52.496;13.482;2023-03-01T06:12:57;102832.59;;;-2.70;91.68
53932;BME280;39844;52.496;13.482;2023-03-01T06:15:22;102834.34;;;-2.69;91.62
53932;BME280;39844;52.496;13.482;2023-03-01T06:17:48;102835.41;;;-2.67;91.66
53932;BME280;39844;52.496;13.482;2023-03-01T06:20:16;102839.75;;;-2.66;91.61
53932;BME280;39844;52.496;13.482;2023-03-01T06:22:42;102837.34;;;-2.65;91.41
53932;BME280;39844;52.496;13.482;2023-03-01T06:25:08;102829.09;;;-2.61;92.17
53932;BME280;39844;52.496;13.482;2023-03-01T06:27:34;102833.69;;;-2.57;91.72
53932;BME280;39844;52.496;13.482;2023-03-01T06:29:59;102836.53;;;-2.53;91.66
53932;BME280;39844;52.496;13.482;2023-03-01T06:32:25;102834.97;;;-2.51;91.69
53932;BME280;39844;52.496;13.482;2023-03-01T06:34:50;102838.59;;;-2.49;91.59
53932;BME280;39844;52.496;13.482;2023-03-01T06:37:15;102838.69;;;-2.48;91.62
53932;BME280;39844;52.496;13.482;2023-03-01T06:39:41;102843.19;;;-2.45;91.56
53932;BME280;39844;52.496;13.482;2023-03-01T06:42:07;102852.84;;;-2.43;91.71
53932;BME280;39844;52.496;13.482;2023-03-01T06:44:33;102858.22;;;-2.40;91.79
53932;BME280;39844;52.496;13.482;2023-03-01T06:46:58;102849.88;;;-2.37;91.63
53932;BME280;39844;52.496;13.482;2023-03-01T06:49:23;102848.31;;;-2.35;91.29
53932;BME280;39844;52.496;13.482;2023-03-01T06:51:49;102846.00;;;-2.32;91.08
53932;BME280;39844;52.496;13.482;2023-03-01T06:54:14;102854.88;;;-2.29;90.53
53932;BME280;39844;52.496;13.482;2023-03-01T06:56:39;102851.75;;;-2.25;90.17
53932;BME280;39844;52.496;13.482;2023-03-01T06:59:05;102846.09;;;-2.21;90.10
53932;BME280;39844;52.496;13.482;2023-03-01T07:01:30;102846.03;;;-2.11;90.78
53932;BME280;39844;52.496;13.482;2023-03-01T07:03:55;102843.88;;;-2.06;90.54
53932;BME280;39844;52.496;13.482;2023-03-01T07:06:21;102843.44;;;-2.01;90.34
53932;BME280;39844;52.496;13.482;2023-03-01T07:08:47;102852.56;;;-1.94;90.57
53932;BME280;39844;52.496;13.482;2023-03-01T07:11:12;102848.69;;;-1.89;90.39
53932;BME280;39844;52.496;13.482;2023-03-01T07:13:38;102849.94;;;-1.84;90.58
53932;BME280;39844;52.496;13.482;2023-03-01T07:16:03;102853.00;;;-1.78;90.40
53932;BME280;39844;52.496;13.482;2023-03-01T07:18:29;102854.25;;;-1.73;90.13
53932;BME280;39844;52.496;13.482;2023-03-01T07:20:54;102857.31;;;-1.67;89.67
53932;BME280;39844;52.496;13.482;2023-03-01T07:23:19;102856.91;;;-1.61;89.67
53932;BME280;39844;52.496;13.482;2023-03-01T07:25:51;102854.03;;;-1.54;89.16
53932;BME280;39844;52.496;13.482;2023-03-01T07:28:16;102847.56;;;-1.49;88.93
53932;BME280;39844;52.496;13.482;2023-03-01T07:30:42;102850.50;;;-1.45;88.38
53932;BME280;39844;52.496;13.482;2023-03-01T07:33:07;102861.94;;;-1.41;88.53
53932;BME280;39844;52.496;13.482;2023-03-01T07:35:32;102853.56;;;-1.39;87.96
53932;BME280;39844;52.496;13.482;2023-03-01T07:37:58;102861.78;;;-1.33;87.99
53932;BME280;39844;52.496;13.482;2023-03-01T07:40:23;102859.56;;;-1.28;87.85
53932;BME280;39844;52.496;13.482;2023-03-01T07:42:48;102846.91;;;-1.25;87.44
53932;BME280;39844;52.496;13.482;2023-03-01T07:45:13;102854.19;;;-1.19;87.50
53932;BME280;39844;52.496;13.482;2023-03-01T07:47:39;102845.16;;;-1.14;87.82
53932;BME280;39844;52.496;13.482;2023-03-01T07:50:05;102848.09;;;-1.10;87.83
53932;BME280;39844;52.496;13.482;2023-03-01T07:52:30;102845.09;;;-1.04;88.04
53932;BME280;39844;52.496;13.482;2023-03-01T07:54:56;102841.03;;;-1.01;87.60
53932;BME280;39844;52.496;13.482;2023-03-01T07:57:22;102838.94;;;-0.95;87.53
53932;BME280;39844;52.496;13.482;2023-03-01T07:59:47;102847.13;;;-0.89;87.48
53932;BME280;39844;52.496;13.482;2023-03-01T08:02:13;102849.41;;;-0.82;87.58
53932;BME280;39844;52.496;13.482;2023-03-01T08:04:38;102844.69;;;-0.76;87.29
53932;BME280;39844;52.496;13.482;2023-03-01T08:07:05;102845.50;;;-0.65;87.18
53932;BME280;39844;52.496;13.482;2023-03-01T08:09:31;102854.94;;;-0.54;86.70
53932;BME280;39844;52.496;13.482;2023-03-01T08:11:57;102846.88;;;-0.47;86.22
53932;BME280;39844;52.496;13.482;2023-03-01T08:14:22;102838.94;;;-0.38;86.07
53932;BME280;39844;52.496;13.482;2023-03-01T08:16:50;102844.00;;;-0.28;86.03
53932;BME280;39844;52.496;13.482;2023-03-01T08:19:16;102834.31;;;-0.19;85.96
53932;BME280;39844;52.496;13.482;2023-03-01T08:21:41;102835.88;;;-0.10;85.85
53932;BME280;39844;52.496;13.482;2023-03-01T08:24:07;102833.97;;;-0.01;85.49
53932;BME280;39844;52.496;13.482;2023-03-01T08:26:33;102832.03;;;0.09;85.15
53932;BME280;39844;52.496;13.482;2023-03-01T08:28:59;102826.75;;;0.19;84.79
53932;BME280;39844;52.496;13.482;2023-03-01T08:31:27;102820.44;;;0.27;84.23
53932;BME280;39844;52.496;13.482;2023-03-01T08:33:55;102820.00;;;0.32;83.88
53932;BME280;39844;52.496;13.482;2023-03-01T08:36:26;102818.72;;;0.39;83.74
53932;BME280;39844;52.496;13.482;2023-03-01T08:38:52;102818.50;;;0.47;83.24
53932;BME280;39844;52.496;13.482;2023-03-01T08:41:18;102817.56;;;0.58;82.81
53932;BME280;39844;52.496;13.482;2023-03-01T08:43:43;102813.09;;;0.69;82.38
53932;BME280;39844;52.496;13.482;2023-03-01T08:46:10;102810.97;;;0.75;81.76
53932;BME280;39844;52.496;13.482;2023-03-01T08:48:35;102809.81;;;0.83;81.24
53932;BME280;39844;52.496;13.482;2023-03-01T08:51:14;102815.50;;;0.91;80.44
53932;BME280;39844;52.496;13.482;2023-03-01T08:56:15;102808.66;;;1.04;78.14
53932;BME280;39844;52.496;13.482;2023-03-01T08:58:48;102808.19;;;1.10;76.46
53932;BME280;39844;52.496;13.482;2023-03-01T09:01:15;102809.38;;;1.15;75.47
53932;BME280;39844;52.496;13.482;2023-03-01T09:03:41;102793.59;;;1.23;74.45
53932;BME280;39844;52.496;13.482;2023-03-01T09:06:07;102791.59;;;1.33;74.08
53932;BME280;39844;52.496;13.482;2023-03-01T09:08:37;102792.31;;;1.43;73.44
53932;BME280;39844;52.496;13.482;2023-03-01T09:11:04;102787.56;;;1.49;72.58
53932;BME280;39844;52.496;13.482;2023-03-01T09:13:29;102788.06;;;1.57;71.88
53932;BME280;39844;52.496;13.482;2023-03-01T09:15:55;102788.44;;;1.63;71.47
53932;BME280;39844;52.496;13.482;2023-03-01T09:18:20;102787.94;;;1.68;71.00
53932;BME280;39844;52.496;13.482;2023-03-01T09:20:45;102792.06;;;1.78;70.02
53932;BME280;39844;52.496;13.482;2023-03-01T09:23:10;102793.53;;;1.87;69.02
53932;BME280;39844;52.496;13.482;2023-03-01T09:25:36;102790.72;;;1.98;68.84
53932;BME280;39844;52.496;13.482;2023-03-01T09:28:01;102786.81;;;2.04;68.20
53932;BME280;39844;52.496;13.482;2023-03-01T09:30:26;102791.78;;;2.14;67.43
53932;BME280;39844;52.496;13.482;2023-03-01T09:32:52;102784.59;;;2.23;67.21
53932;BME280;39844;52.496;13.482;2023-03-01T09:35:17;102780.78;;;2.31;66.98
53932;BME280;39844;52.496;13.482;2023-03-01T09:37:42;102778.56;;;2.37;65.97
53932;BME280;39844;52.496;13.482;2023-03-01T09:40:17;102781.75;;;2.46;65.52
53932;BME280;39844;52.496;13.482;2023-03-01T09:42:58;102777.91;;;2.54;65.03
53932;BME280;39844;52.496;13.482;2023-03-01T09:45:32;102779.25;;;2.63;63.25
53932;BME280;39844;52.496;13.482;2023-03-01T09:47:58;102778.81;;;2.70;62.88
53932;BME280;39844;52.496;13.482;2023-03-01T09:50:26;102777.59;;;2.78;62.31
53932;BME280;39844;52.496;13.482;2023-03-01T09:55:35;102777.28;;;2.86;60.01
53932;BME280;39844;52.496;13.482;2023-03-01T10:03:43;102775.06;;;3.07;57.70
53932;BME280;39844;52.496;13.482;2023-03-01T10:06:21;102771.38;;;3.18;57.30
53932;BME280;39844;52.496;13.482;2023-03-01T10:09:03;102771.22;;;3.30;56.67
53932;BME280;39844;52.496;13.482;2023-03-01T10:11:53;102770.03;;;3.39;55.85
53932;BME280;39844;52.496;13.482;2023-03-01T10:14:34;102778.44;;;3.50;55.71
53932;BME280;39844;52.496;13.482;2023-03-01T10:17:04;102779.78;;;3.58;55.17
53932;BME280;39844;52.496;13.482;2023-03-01T10:19:40;102776.72;;;3.65;54.64
53932;BME280;39844;52.496;13.482;2023-03-01T10:22:19;102777.09;;;3.71;53.93
53932;BME280;39844;52.496;13.482;2023-03-01T10:24:45;102782.72;;;3.78;53.82
53932;BME280;39844;52.496;13.482;2023-03-01T10:27:19;102766.47;;;3.82;54.01
53932;BME280;39844;52.496;13.482;2023-03-01T10:29:56;102766.81;;;3.89;53.92
53932;BME280;39844;52.496;13.482;2023-03-01T10:32:24;102761.88;;;3.93;54.57
53932;BME280;39844;52.496;13.482;2023-03-01T10:34:51;102755.97;;;3.96;54.02
53932;BME280;39844;52.496;13.482;2023-03-01T10:37:18;102762.31;;;4.01;53.82
53932;BME280;39844;52.496;13.482;2023-03-01T10:40:06;102758.25;;;4.06;53.99
53932;BME280;39844;52.496;13.482;2023-03-01T10:42:35;102751.59;;;4.11;53.78
53932;BME280;39844;52.496;13.482;2023-03-01T10:45:38;102756.13;;;4.15;53.77
53932;BME280;39844;52.496;13.482;2023-03-01T10:48:25;102747.78;;;4.20;53.19
53932;BME280;39844;52.496;13.482;2023-03-01T10:51:06;102745.38;;;4.23;53.09
53932;BME280;39844;52.496;13.482;2023-03-01T10:53:34;102747.56;;;4.32;53.20
53932;BME280;39844;52.496;13.482;2023-03-01T10:58:26;102740.75;;;4.34;52.23
53932;BME280;39844;52.496;13.482;2023-03-01T11:03:40;102727.91;;;4.37;51.18
53932;BME280;39844;52.496;13.482;2023-03-01T11:06:21;102733.13;;;4.37;50.56
53932;BME280;39844;52.496;13.482;2023-03-01T11:08:48;102724.41;;;4.36;50.04
53932;BME280;39844;52.496;13.482;2023-03-01T11:11:32;102729.63;;;4.36;50.29
53932;BME280;39844;52.496;13.482;2023-03-01T11:14:17;102716.84;;;4.41;49.55
53932;BME280;39844;52.496;13.482;2023-03-01T11:16:45;102708.56;;;4.48;49.41
53932;BME280;39844;52.496;13.482;2023-03-01T11:22:24;102706.50;;;4.59;49.20
53932;BME280;39844;52.496;13.482;2023-03-01T11:24:36;102702.22;;;4.59;49.20
53932;BME280;39844;52.496;13.482;2023-03-01T11:27:06;102691.81;;;4.59;49.36
53932;BME280;39844;52.496;13.482;2023-03-01T11:29:39;102703.19;;;4.61;49.10
53932;BME280;39844;52.496;13.482;2023-03-01T11:32:08;102705.16;;;4.65;49.47
53932;BME280;39844;52.496;13.482;2023-03-01T11:34:49;102699.22;;;4.68;49.25
53932;BME280;39844;52.496;13.482;2023-03-01T11:37:39;102692.53;;;4.73;48.88
53932;BME280;39844;52.496;13.482;2023-03-01T11:40:25;102678.19;;;4.81;49.45
53932;BME280;39844;52.496;13.482;2023-03-01T11:43:18;102686.38;;;4.88;48.63
53932;BME280;39844;52.496;13.482;2023-03-01T11:46:24;102688.56;;;4.97;48.65
53932;BME280;39844;52.496;13.482;2023-03-01T11:57:11;102691.13;;;5.13;42.98
53932;BME280;39844;52.496;13.482;2023-03-01T11:59:55;102680.91;;;5.18;43.92
53932;BME280;39844;52.496;13.482;2023-03-01T12:16:56;102656.41;;;6.82;41.38
53932;BME280;39844;52.496;13.482;2023-03-01T12:19:21;102657.16;;;7.21;40.40
53932;BME280;39844;52.496;13.482;2023-03-01T12:22:04;102654.31;;;7.57;39.32
53932;BME280;39844;52.496;13.482;2023-03-01T12:29:59;102639.03;;;8.61;36.35
53932;BME280;39844;52.496;13.482;2023-03-01T12:35:29;102630.03;;;9.05;35.58
53932;BME280;39844;52.496;13.482;2023-03-01T12:41:03;102614.38;;;9.62;36.17
53932;BME280;39844;52.496;13.482;2023-03-01T12:49:10;102594.13;;;10.15;34.43
53932;BME280;39844;52.496;13.482;2023-03-01T12:51:39;102594.44;;;10.28;33.96
53932;BME280;39844;52.496;13.482;2023-03-01T12:54:14;102588.47;;;10.32;33.26
53932;BME280;39844;52.496;13.482;2023-03-01T12:56:40;102590.31;;;10.36;33.00
53932;BME280;39844;52.496;13.482;2023-03-01T13:01:56;102583.72;;;10.19;33.41
53932;BME280;39844;52.496;13.482;2023-03-01T13:07:21;102589.56;;;10.40;33.76
53932;BME280;39844;52.496;13.482;2023-03-01T13:10:17;102581.94;;;10.50;32.70
53932;BME280;39844;52.496;13.482;2023-03-01T13:12:51;102577.59;;;10.51;32.51
53932;BME280;39844;52.496;13.482;2023-03-01T13:17:49;102575.34;;;10.32;30.69
53932;BME280;39844;52.496;13.482;2023-03-01T13:20:17;102580.41;;;10.26;32.38
53932;BME280;39844;52.496;13.482;2023-03-01T13:22:45;102577.66;;;10.21;30.84
53932;BME280;39844;52.496;13.482;2023-03-01T13:25:15;102571.41;;;10.16;31.10
53932;BME280;39844;52.496;13.482;2023-03-01T13:27:42;102565.09;;;10.11;31.27
53932;BME280;39844;52.496;13.482;2023-03-01T13:35:48;102557.56;;;10.22;30.44
53932;BME280;39844;52.496;13.482;2023-03-01T13:41:07;102557.75;;;9.99;30.16
53932;BME280;39844;52.496;13.482;2023-03-01T13:43:37;102550.44;;;9.86;30.92
53932;BME280;39844;52.496;13.482;2023-03-01T13:46:23;102549.47;;;9.84;30.71
53932;BME280;39844;52.496;13.482;2023-03-01T13:48:54;102558.22;;;9.83;30.88
53932;BME280;39844;52.496;13.482;2023-03-01T13:51:26;102542.50;;;9.85;30.68
53932;BME280;39844;52.496;13.482;2023-03-01T13:53:54;102540.78;;;9.85;31.24
53932;BME280;39844;52.496;13.482;2023-03-01T13:56:28;102544.31;;;9.87;31.38
53932;BME280;39844;52.496;13.482;2023-03-01T13:59:01;102537.38;;;9.89;32.50
53932;BME280;39844;52.496;13.482;2023-03-01T14:01:33;102534.09;;;9.96;32.74
53932;BME280;39844;52.496;13.482;2023-03-01T14:04:00;102534.25;;;10.02;32.60
53932;BME280;39844;52.496;13.482;2023-03-01T14:06:32;102530.88;;;10.06;33.09
53932;BME280;39844;52.496;13.482;2023-03-01T14:09:14;102517.75;;;10.06;32.68
53932;BME280;39844;52.496;13.482;2023-03-01T14:14:41;102508.19;;;10.08;33.10
53932;BME280;39844;52.496;13.482;2023-03-01T14:19:40;102508.53;;;9.89;32.88
53932;BME280;39844;52.496;13.482;2023-03-01T14:22:18;102513.13;;;9.96;33.47
53932;BME280;39844;52.496;13.482;2023-03-01T14:25:00;102507.19;;;10.05;33.58